createdAt,value
2023-06-29T00:01:27.894Z,18.66
2023-06-29T00:04:07.665Z,18.63
2023-06-29T00:06:47.028Z,18.59
2023-06-29T00:09:26.345Z,18.53
2023-06-29T00:12:05.666Z,18.49
2023-06-29T00:14:50.045Z,18.44
2023-06-29T00:17:29.423Z,18.39
2023-06-29T00:20:11.927Z,18.36
2023-06-29T00:22:51.439Z,18.33
2023-06-29T00:25:31.294Z,18.30
2023-06-29T00:28:11.359Z,18.29
2023-06-29T00:30:56.063Z,18.26
2023-06-29T00:33:35.482Z,18.22
2023-06-29T00:36:14.887Z,18.18
2023-06-29T00:38:55.013Z,18.13
2023-06-29T00:41:34.482Z,18.07
2023-06-29T00:44:13.812Z,18.03
2023-06-29T00:47:01.058Z,18.00
2023-06-29T00:49:40.883Z,17.97
2023-06-29T00:52:20.695Z,17.91
2023-06-29T00:55:03.525Z,17.83
2023-06-29T00:57:43.060Z,17.76
2023-06-29T01:00:23.405Z,17.73
2023-06-29T01:03:07.966Z,17.72
2023-06-29T01:05:47.708Z,17.70
2023-06-29T01:08:33.785Z,17.66
2023-06-29T01:11:14.633Z,17.64
2023-06-29T01:13:55.932Z,17.62
2023-06-29T01:16:38.295Z,17.58
2023-06-29T01:19:30.660Z,17.53
2023-06-29T01:22:15.896Z,17.48
2023-06-29T01:25:01.642Z,17.45
2023-06-29T01:27:45.606Z,17.41
2023-06-29T01:30:25.790Z,17.38
2023-06-29T01:33:05.162Z,17.34
2023-06-29T01:35:44.857Z,17.33
2023-06-29T01:38:34.924Z,17.31
2023-06-29T01:41:24.357Z,17.30
2023-06-29T01:44:05.440Z,17.28
2023-06-29T01:46:45.575Z,17.27
2023-06-29T01:49:25.205Z,17.25
2023-06-29T01:52:04.651Z,17.24
2023-06-29T01:54:44.306Z,17.23
2023-06-29T01:57:28.729Z,17.22
2023-06-29T02:00:08.399Z,17.20
2023-06-29T02:02:47.805Z,17.17
2023-06-29T02:05:27.273Z,17.14
2023-06-29T02:08:06.612Z,17.13
2023-06-29T02:10:45.955Z,17.08
2023-06-29T02:13:30.354Z,17.05
2023-06-29T02:16:09.809Z,17.02
2023-06-29T02:18:49.166Z,16.97
2023-06-29T02:21:28.457Z,16.93
2023-06-29T02:24:07.782Z,16.89
2023-06-29T02:26:47.089Z,16.85
2023-06-29T02:29:31.956Z,16.82
2023-06-29T02:32:12.036Z,16.79
2023-06-29T02:34:51.319Z,16.76
2023-06-29T02:37:30.654Z,16.73
2023-06-29T02:40:10.207Z,16.70
2023-06-29T02:42:49.965Z,16.67
2023-06-29T02:45:34.369Z,16.65
2023-06-29T02:48:14.119Z,16.62
2023-06-29T02:50:53.525Z,16.59
2023-06-29T02:53:32.886Z,16.57
2023-06-29T02:56:12.588Z,16.56
2023-06-29T02:58:51.930Z,16.54
2023-06-29T03:01:36.425Z,16.53
2023-06-29T03:04:15.768Z,16.51
2023-06-29T03:06:55.152Z,16.49
2023-06-29T03:09:34.479Z,16.48
2023-06-29T03:12:15.677Z,16.46
2023-06-29T03:14:55.017Z,16.45
2023-06-29T03:17:39.461Z,16.42
2023-06-29T03:20:20.917Z,16.39
2023-06-29T03:23:00.256Z,16.34
2023-06-29T03:25:39.704Z,16.31
2023-06-29T03:28:19.014Z,16.28
2023-06-29T03:30:58.448Z,16.25
2023-06-29T03:33:42.850Z,16.23
2023-06-29T03:36:22.183Z,16.22
2023-06-29T03:39:01.522Z,16.20
2023-06-29T03:41:40.903Z,16.18
2023-06-29T03:44:20.251Z,16.17
2023-06-29T03:47:00.137Z,16.15
2023-06-29T03:49:44.722Z,16.14
2023-06-29T03:52:24.076Z,16.14
2023-06-29T03:55:03.400Z,16.15
2023-06-29T03:57:42.688Z,16.15
2023-06-29T04:00:22.821Z,16.15
2023-06-29T04:03:02.214Z,16.15
2023-06-29T04:05:47.235Z,16.17
2023-06-29T04:08:26.565Z,16.19
2023-06-29T04:11:05.882Z,16.20
2023-06-29T04:13:45.180Z,16.19
2023-06-29T04:16:24.721Z,16.14
2023-06-29T04:19:04.141Z,16.11
2023-06-29T04:21:48.539Z,16.11
2023-06-29T04:24:27.848Z,16.10
2023-06-29T04:27:07.942Z,16.11
2023-06-29T04:29:47.300Z,16.14
2023-06-29T04:32:26.762Z,16.17
2023-06-29T04:35:06.323Z,16.19
2023-06-29T04:37:50.785Z,16.22
2023-06-29T04:40:30.406Z,16.25
2023-06-29T04:43:09.794Z,16.28
2023-06-29T04:45:49.076Z,16.31
2023-06-29T04:48:31.192Z,16.34
2023-06-29T04:51:10.623Z,16.38
2023-06-29T04:53:55.020Z,16.42
2023-06-29T04:56:34.378Z,16.46
2023-06-29T04:59:13.694Z,16.51
2023-06-29T05:01:53.233Z,16.55
2023-06-29T05:04:32.708Z,16.60
2023-06-29T05:07:12.629Z,16.63
2023-06-29T05:09:56.987Z,16.67
2023-06-29T05:12:36.285Z,16.72
2023-06-29T05:15:17.811Z,16.75
2023-06-29T05:17:57.212Z,16.78
2023-06-29T05:20:37.320Z,16.81
2023-06-29T05:23:16.766Z,16.85
2023-06-29T05:26:01.229Z,16.89
2023-06-29T05:28:42.821Z,16.95
2023-06-29T05:31:29.124Z,17.01
2023-06-29T05:34:08.470Z,17.09
2023-06-29T05:36:47.841Z,17.17
2023-06-29T05:39:27.290Z,17.26
2023-06-29T05:42:12.188Z,17.33
2023-06-29T05:44:51.455Z,17.40
2023-06-29T05:47:30.874Z,17.48
2023-06-29T05:50:10.425Z,17.54
2023-06-29T05:52:51.392Z,17.61
2023-06-29T05:55:31.142Z,17.69
2023-06-29T05:58:15.625Z,17.76
2023-06-29T06:00:54.986Z,17.83
2023-06-29T06:03:35.452Z,17.91
2023-06-29T06:06:14.975Z,17.97
2023-06-29T06:08:54.455Z,18.03
2023-06-29T06:11:33.813Z,18.10
2023-06-29T06:14:18.182Z,18.17
2023-06-29T06:16:57.515Z,18.24
2023-06-29T06:19:36.911Z,18.31
2023-06-29T06:22:16.337Z,18.38
2023-06-29T06:24:55.771Z,18.46
2023-06-29T06:27:35.110Z,18.56
2023-06-29T06:30:20.203Z,18.64
2023-06-29T06:32:59.648Z,18.73
2023-06-29T06:35:39.943Z,18.80
2023-06-29T06:38:19.835Z,18.88
2023-06-29T06:40:59.528Z,18.97
2023-06-29T06:43:38.997Z,19.07
2023-06-29T06:46:23.461Z,19.20
2023-06-29T06:49:02.809Z,19.33
2023-06-29T06:51:42.503Z,19.45
2023-06-29T06:54:22.803Z,19.56
2023-06-29T06:57:02.317Z,19.66
2023-06-29T06:59:42.620Z,19.76
2023-06-29T07:02:27.211Z,19.87
2023-06-29T07:05:07.509Z,20.01
2023-06-29T07:07:48.485Z,20.17
2023-06-29T07:10:28.169Z,20.31
2023-06-29T07:13:07.535Z,20.44
2023-06-29T07:15:46.871Z,20.58
2023-06-29T07:18:31.302Z,20.70
2023-06-29T07:26:37.313Z,21.04
2023-06-29T07:29:16.648Z,21.16
2023-06-29T07:31:55.946Z,21.30
2023-06-29T07:34:40.391Z,21.42
2023-06-29T07:37:19.705Z,21.53
2023-06-29T07:39:59.014Z,21.65
2023-06-29T07:42:39.857Z,21.79
2023-06-29T07:45:20.976Z,21.90
2023-06-29T07:48:00.416Z,21.98
2023-06-29T07:50:44.862Z,22.06
2023-06-29T07:53:24.176Z,22.16
2023-06-29T07:56:03.585Z,22.27
2023-06-29T07:58:43.117Z,22.39
2023-06-29T08:01:22.532Z,22.55
2023-06-29T08:04:03.528Z,22.68
2023-06-29T08:06:51.762Z,22.83
2023-06-29T08:09:31.570Z,22.99
2023-06-29T08:12:11.383Z,23.12
2023-06-29T08:14:50.695Z,23.24
2023-06-29T08:17:30.074Z,23.37
2023-06-29T08:20:13.084Z,23.49
2023-06-29T08:22:58.111Z,23.63
2023-06-29T08:25:37.516Z,23.79
2023-06-29T08:28:16.921Z,23.92
2023-06-29T08:30:56.272Z,24.07
2023-06-29T08:33:35.613Z,24.17
2023-06-29T08:36:14.943Z,24.27
2023-06-29T08:38:59.309Z,24.39
2023-06-29T08:41:38.682Z,24.50
2023-06-29T08:44:18.116Z,24.62
2023-06-29T08:46:57.727Z,24.78
2023-06-29T08:49:39.564Z,24.95
2023-06-29T08:52:24.829Z,25.14
2023-06-29T08:55:11.137Z,25.33
2023-06-29T08:57:50.954Z,25.47
2023-06-29T09:00:31.062Z,25.60
2023-06-29T09:03:12.482Z,25.75
2023-06-29T09:05:53.086Z,25.89
2023-06-29T09:08:32.498Z,25.99
2023-06-29T09:11:17.440Z,26.09
2023-06-29T09:13:57.728Z,26.24
2023-06-29T09:16:37.389Z,26.41
2023-06-29T09:19:16.891Z,26.56
2023-06-29T09:21:56.531Z,26.75
2023-06-29T09:24:43.754Z,26.94
2023-06-29T09:27:37.607Z,27.16
2023-06-29T09:30:25.777Z,27.32
2023-06-29T09:33:05.140Z,27.43
2023-06-29T09:35:46.462Z,27.51
2023-06-29T09:38:26.152Z,27.63
2023-06-29T09:41:05.854Z,27.77
2023-06-29T09:43:51.497Z,27.93
2023-06-29T09:46:34.353Z,28.03
2023-06-29T09:49:16.418Z,28.19
2023-06-29T09:51:56.746Z,28.30
2023-06-29T09:54:36.168Z,28.42
2023-06-29T09:57:17.270Z,28.49
2023-06-29T10:00:02.916Z,28.55
2023-06-29T10:02:42.391Z,28.66
2023-06-29T10:05:22.898Z,28.75
2023-06-29T10:08:02.895Z,28.70
2023-06-29T10:10:45.045Z,28.66
2023-06-29T10:13:26.894Z,28.65
2023-06-29T10:16:15.732Z,28.77
2023-06-29T10:18:59.124Z,28.88
2023-06-29T10:21:38.595Z,28.93
2023-06-29T10:24:22.321Z,28.97
2023-06-29T10:27:04.186Z,29.12
2023-06-29T10:29:52.906Z,29.41
2023-06-29T10:32:44.934Z,29.68
2023-06-29T10:35:26.814Z,29.95
2023-06-29T10:38:09.109Z,30.21
2023-06-29T10:40:55.228Z,30.42
2023-06-29T10:46:23.843Z,30.75
2023-06-29T10:49:14.125Z,30.88
2023-06-29T10:51:57.883Z,30.98
2023-06-29T10:54:37.822Z,31.07
2023-06-29T10:57:17.907Z,31.09
2023-06-29T10:59:57.231Z,30.95
2023-06-29T11:02:36.887Z,30.89
2023-06-29T11:05:26.260Z,30.94
2023-06-29T11:08:05.707Z,30.91
2023-06-29T11:10:47.265Z,30.90
2023-06-29T11:13:28.320Z,30.87
2023-06-29T11:16:07.782Z,30.88
2023-06-29T11:18:56.103Z,30.92
2023-06-29T11:21:40.561Z,30.91
2023-06-29T11:24:23.721Z,31.09
2023-06-29T11:27:03.662Z,31.47
2023-06-29T11:29:43.008Z,31.78
2023-06-29T11:32:24.211Z,32.08
2023-06-29T11:35:07.288Z,32.13
2023-06-29T11:37:51.695Z,32.22
2023-06-29T11:40:32.918Z,32.35
2023-06-29T11:43:12.385Z,32.49
2023-06-29T11:45:52.917Z,32.59
2023-06-29T11:48:32.288Z,32.63
2023-06-29T11:51:12.143Z,32.66
2023-06-29T11:53:56.860Z,32.74
2023-06-29T11:56:43.032Z,32.57
2023-06-29T11:59:22.786Z,32.22
2023-06-29T12:02:02.554Z,31.94
2023-06-29T12:04:42.014Z,31.76
2023-06-29T12:07:21.588Z,31.62
2023-06-29T12:10:10.283Z,31.44
2023-06-29T12:12:57.944Z,31.33
2023-06-29T12:15:40.248Z,31.24
2023-06-29T12:18:21.718Z,31.15
2023-06-29T12:21:01.549Z,31.03
2023-06-29T12:23:41.023Z,30.97
2023-06-29T12:26:27.441Z,30.93
2023-06-29T12:29:06.828Z,30.85
2023-06-29T12:31:46.382Z,30.75
2023-06-29T12:34:25.990Z,30.70
2023-06-29T12:37:05.312Z,30.66
2023-06-29T12:39:44.631Z,30.56
2023-06-29T12:42:30.586Z,30.46
2023-06-29T12:45:10.966Z,30.31
2023-06-29T12:47:50.252Z,30.18
2023-06-29T12:50:29.641Z,30.05
2023-06-29T12:53:08.976Z,29.94
2023-06-29T12:55:48.618Z,29.85
2023-06-29T12:58:34.545Z,29.75
2023-06-29T13:01:14.020Z,29.65
2023-06-29T13:03:53.614Z,29.55
2023-06-29T13:06:38.020Z,29.46
2023-06-29T13:09:17.393Z,29.40
2023-06-29T13:11:56.771Z,29.36
2023-06-29T13:14:41.170Z,29.31
2023-06-29T13:17:20.943Z,29.22
2023-06-29T13:20:00.437Z,29.14
2023-06-29T13:22:40.216Z,29.04
2023-06-29T13:25:19.993Z,28.92
2023-06-29T13:27:59.391Z,28.80
2023-06-29T13:30:43.768Z,28.68
2023-06-29T13:33:24.227Z,28.56
2023-06-29T13:36:03.574Z,28.46
2023-06-29T13:38:42.901Z,28.39
2023-06-29T13:41:22.285Z,28.35
2023-06-29T13:44:01.611Z,28.31
2023-06-29T13:46:46.833Z,28.28
2023-06-29T13:49:26.382Z,28.23
2023-06-29T13:52:05.772Z,28.16
2023-06-29T13:54:45.139Z,28.11
2023-06-29T13:57:25.641Z,28.07
2023-06-29T14:00:05.152Z,28.01
2023-06-29T14:02:51.340Z,27.95
2023-06-29T14:05:32.753Z,27.88
2023-06-29T14:08:13.688Z,27.84
2023-06-29T14:10:53.019Z,27.81
2023-06-29T14:13:33.281Z,27.76
2023-06-29T14:16:13.641Z,27.71
2023-06-29T14:18:58.310Z,27.72
2023-06-29T14:21:38.140Z,27.78
2023-06-29T14:24:17.709Z,27.91
2023-06-29T14:26:57.971Z,28.02
2023-06-29T14:29:37.358Z,28.14
2023-06-29T14:32:16.718Z,28.27
2023-06-29T14:35:01.155Z,28.47
2023-06-29T14:37:40.470Z,28.71
2023-06-29T14:40:20.561Z,28.90
2023-06-29T14:42:59.918Z,28.98
2023-06-29T14:45:39.295Z,28.93
2023-06-29T14:48:19.086Z,28.87
2023-06-29T14:51:03.555Z,28.80
2023-06-29T14:53:43.046Z,28.70
2023-06-29T14:56:22.472Z,28.58
2023-06-29T14:59:01.890Z,28.48
2023-06-29T15:01:41.748Z,28.37
2023-06-29T15:04:21.111Z,28.30
2023-06-29T15:07:05.499Z,28.25
2023-06-29T15:09:45.293Z,28.19
2023-06-29T15:12:26.338Z,28.09
2023-06-29T15:15:05.869Z,28.01
2023-06-29T15:17:45.238Z,27.93
2023-06-29T15:20:24.668Z,27.85
2023-06-29T15:23:09.081Z,27.78
2023-06-29T15:25:48.629Z,27.74
2023-06-29T15:28:28.197Z,27.69
2023-06-29T15:31:07.859Z,27.65
2023-06-29T15:33:47.274Z,27.62
2023-06-29T15:36:26.694Z,27.59
2023-06-29T15:39:11.248Z,27.58
2023-06-29T15:41:51.385Z,27.56
2023-06-29T15:44:30.825Z,27.57
2023-06-29T15:47:10.274Z,27.59
2023-06-29T15:49:49.823Z,27.60
2023-06-29T15:52:29.953Z,27.59
2023-06-29T15:55:15.432Z,27.59
2023-06-29T15:57:55.850Z,27.59
2023-06-29T16:00:39.629Z,27.58
2023-06-29T16:03:19.046Z,27.58
2023-06-29T16:05:58.474Z,27.58
2023-06-29T16:08:37.875Z,27.56
2023-06-29T16:11:22.335Z,27.54
2023-06-29T16:14:02.971Z,27.52
2023-06-29T16:16:42.336Z,27.48
2023-06-29T16:19:21.801Z,27.44
2023-06-29T16:22:01.193Z,27.40
2023-06-29T16:24:41.448Z,27.33
2023-06-29T16:27:25.848Z,27.27
2023-06-29T16:30:05.309Z,27.22
2023-06-29T16:32:44.769Z,27.17
2023-06-29T16:35:24.430Z,27.10
2023-06-29T16:38:03.732Z,27.04
2023-06-29T16:40:43.062Z,26.98
2023-06-29T16:43:27.464Z,26.91
2023-06-29T16:46:06.882Z,26.84
2023-06-29T16:48:46.329Z,26.76
2023-06-29T16:51:25.603Z,26.70
2023-06-29T16:54:06.272Z,26.65
2023-06-29T16:56:45.863Z,26.59
2023-06-29T16:59:31.077Z,26.56
2023-06-29T17:02:10.643Z,26.52
2023-06-29T17:04:50.092Z,26.45
2023-06-29T17:07:29.450Z,26.38
2023-06-29T17:10:08.790Z,26.35
2023-06-29T17:12:48.271Z,26.31
2023-06-29T17:15:32.707Z,26.28
2023-06-29T17:18:12.060Z,26.26
2023-06-29T17:20:51.457Z,26.25
2023-06-29T17:23:30.826Z,26.23
2023-06-29T17:26:11.786Z,26.22
2023-06-29T17:28:51.098Z,26.23
2023-06-29T17:31:35.504Z,26.26
2023-06-29T17:34:14.926Z,26.25
2023-06-29T17:36:54.299Z,26.27
2023-06-29T17:39:33.686Z,26.29
2023-06-29T17:42:13.920Z,26.36
2023-06-29T17:44:53.632Z,26.50
2023-06-29T17:47:38.093Z,26.62
2023-06-29T17:50:18.121Z,26.70
2023-06-29T17:52:57.451Z,26.75
2023-06-29T17:55:36.774Z,26.79
2023-06-29T17:58:16.080Z,26.82
2023-06-29T18:00:55.413Z,26.85
2023-06-29T18:03:40.005Z,26.88
2023-06-29T18:06:20.584Z,26.88
2023-06-29T18:09:00.558Z,26.83
2023-06-29T18:11:39.930Z,26.79
2023-06-29T18:14:19.808Z,26.73
2023-06-29T18:16:59.215Z,26.67
2023-06-29T18:19:43.564Z,26.61
2023-06-29T18:22:23.188Z,26.54
2023-06-29T18:25:02.528Z,26.48
2023-06-29T18:27:41.977Z,26.42
2023-06-29T18:30:21.873Z,26.36
2023-06-29T18:33:01.246Z,26.28
2023-06-29T18:35:45.968Z,26.19
2023-06-29T18:38:25.619Z,26.09
2023-06-29T18:41:10.537Z,25.99
2023-06-29T18:43:49.858Z,25.88
2023-06-29T18:46:29.197Z,25.80
2023-06-29T18:49:08.625Z,25.71
2023-06-29T18:51:53.034Z,25.61
2023-06-29T18:54:32.380Z,25.50
2023-06-29T18:57:13.907Z,25.39
2023-06-29T18:59:53.259Z,25.30
2023-06-29T19:02:33.298Z,25.21
2023-06-29T19:05:13.394Z,25.09
2023-06-29T19:07:58.576Z,24.98
2023-06-29T19:10:37.978Z,24.88
2023-06-29T19:13:17.317Z,24.79
2023-06-29T19:15:56.756Z,24.70
2023-06-29T19:18:36.414Z,24.62
2023-06-29T19:21:15.786Z,24.56
2023-06-29T19:24:00.169Z,24.51
2023-06-29T19:26:39.650Z,24.46
2023-06-29T19:29:19.346Z,24.38
2023-06-29T19:31:58.700Z,24.34
2023-06-29T19:34:38.523Z,24.26
2023-06-29T19:37:17.851Z,24.20
2023-06-29T19:40:02.241Z,24.14
2023-06-29T19:42:41.632Z,24.09
2023-06-29T19:45:20.992Z,24.04
2023-06-29T19:48:00.456Z,23.98
2023-06-29T19:50:39.804Z,23.93
2023-06-29T19:53:19.152Z,23.88
2023-06-29T19:56:04.571Z,23.84
2023-06-29T19:58:43.903Z,23.79
2023-06-29T20:01:23.276Z,23.72
2023-06-29T20:04:02.791Z,23.65
2023-06-29T20:06:42.151Z,23.61
2023-06-29T20:09:21.463Z,23.55
2023-06-29T20:12:05.917Z,23.47
2023-06-29T20:14:45.519Z,23.40
2023-06-29T20:17:24.940Z,23.32
2023-06-29T20:20:05.052Z,23.25
2023-06-29T20:22:44.394Z,23.19
2023-06-29T20:25:23.960Z,23.14
2023-06-29T20:28:08.355Z,23.08
2023-06-29T20:30:48.256Z,23.04
2023-06-29T20:33:27.555Z,23.01
2023-06-29T20:36:07.009Z,22.97
2023-06-29T20:38:46.351Z,22.93
2023-06-29T20:41:25.770Z,22.89
2023-06-29T20:44:16.043Z,22.85
2023-06-29T20:46:55.544Z,22.81
2023-06-29T20:49:35.464Z,22.78
2023-06-29T20:52:15.439Z,22.76
2023-06-29T20:54:54.756Z,22.74
2023-06-29T20:57:39.047Z,22.72
2023-06-29T21:00:24.577Z,22.67
2023-06-29T21:03:03.927Z,22.63
2023-06-29T21:05:43.254Z,22.59
2023-06-29T21:08:22.554Z,22.55
2023-06-29T21:11:01.881Z,22.48
2023-06-29T21:13:41.764Z,22.41
2023-06-29T21:16:27.113Z,22.36
2023-06-29T21:19:07.056Z,22.31
2023-06-29T21:21:47.447Z,22.28
2023-06-29T21:24:27.334Z,22.27
2023-06-29T21:27:06.847Z,22.26
2023-06-29T21:29:48.006Z,22.25
2023-06-29T21:32:32.921Z,22.24
2023-06-29T21:35:13.653Z,22.23
2023-06-29T21:37:53.532Z,22.21
2023-06-29T21:40:32.855Z,22.19
2023-06-29T21:43:12.219Z,22.16
2023-06-29T21:45:52.170Z,22.15
2023-06-29T21:48:38.183Z,22.14
2023-06-29T21:51:17.560Z,22.13
2023-06-29T21:53:56.831Z,22.12
2023-06-29T21:56:36.241Z,22.12
2023-06-29T21:59:15.647Z,22.11
2023-06-29T22:01:55.911Z,22.10
2023-06-29T22:04:40.323Z,22.10
2023-06-29T22:07:19.799Z,22.08
2023-06-29T22:09:59.158Z,22.06
2023-06-29T22:12:40.808Z,22.04
2023-06-29T22:15:21.333Z,22.01
2023-06-29T22:18:00.704Z,21.99
2023-06-29T22:20:45.177Z,21.98
2023-06-29T22:23:24.649Z,21.96
2023-06-29T22:26:04.071Z,21.95
2023-06-29T22:28:43.390Z,21.94
2023-06-29T22:31:22.898Z,21.94
2023-06-29T22:34:02.311Z,21.93
2023-06-29T22:36:46.699Z,21.92
2023-06-29T22:39:26.021Z,21.90
2023-06-29T22:42:05.385Z,21.88
2023-06-29T22:44:44.668Z,21.86
2023-06-29T22:47:24.043Z,21.85
2023-06-29T22:50:03.377Z,21.83
2023-06-29T22:52:47.779Z,21.82
2023-06-29T22:55:27.336Z,21.80
2023-06-29T22:58:06.605Z,21.76
2023-06-29T23:00:45.893Z,21.72
2023-06-29T23:03:25.347Z,21.68
2023-06-29T23:06:04.929Z,21.64
2023-06-29T23:08:49.367Z,21.61
2023-06-29T23:11:33.519Z,21.58
2023-06-29T23:14:17.550Z,21.55
2023-06-29T23:16:56.840Z,21.51
2023-06-29T23:19:36.294Z,21.47
2023-06-29T23:22:15.585Z,21.44
2023-06-29T23:25:00.240Z,21.41
2023-06-29T23:27:43.802Z,21.35
2023-06-29T23:30:23.258Z,21.29
2023-06-29T23:33:02.720Z,21.23
2023-06-29T23:35:42.052Z,21.19
2023-06-29T23:38:21.453Z,21.16
2023-06-29T23:41:05.870Z,21.11
2023-06-29T23:43:45.409Z,21.07
2023-06-29T23:46:27.789Z,21.05
2023-06-29T23:49:08.695Z,21.01
2023-06-29T23:51:49.870Z,20.97
2023-06-29T23:54:29.207Z,20.93
2023-06-29T23:57:16.498Z,20.89
2023-06-29T23:59:55.871Z,20.85
